Decoded Metar for LFBT (TARBES in FRANCE) (IATA:LDE) | Meteo·Mobile Aviation Weather
aviador You're here:

LFBT Decoded Metar

TARBES in FRANCE
Report Time2018-08-21 16:00:00
UTC Time2018-08-21 16:07:22
Flight Rules vfr VFR
Wind010° at 04 kt
W.Decomp.*RWY 02: 3.9 kt HW 0.7 kt LCW
W.Rank010° ranks 19
Current wind is below 010° avg. (4.7)
Visibility9999 m
Phenomena:N/A
Clouds:Few 044 Hf
Expected CloudBase > 4,000 ft AGL from Temp-Dew spread
CeilingNone
Temp28°C (ISA +15)
Dew Point18°C (55% RH)
Heat Index28.9°C
QNH1017 hPa
Density Alt3,100 ft
Elevation1,191 ft
Report Wrong Elevation
Raw Report
METAR LFBT 211600Z AUTO 01004KT 320V060 9999 FEW044 28/18 Q1017
NOSIG=

Extra information for LFBT:More info

Metar Taf Metar & Taf Last 4 Metars F.Rules Stats Wind Profile Meteogram Temp Stats Airport Information Weather charts Add Link Nearby VenuesMetar ALERT Operation Metar Decoded Social comments